PSLKS SNMX-SBTC
Flight info
| Callsign | PSLKS |
|---|---|
| Flight time | 0h 58m |
| Altitude | 25000 |
| Route | GETPO DCT |
| Aircraft | TBM9/L-SDFGRWY/S |
Departure
| Time | 2026-04-14 21:25 |
|---|---|
| Airport | São Mateus - Ernesto Bonomo Airport (SNMX) |
Arrival
| Time | 2026-04-14 22:23 |
|---|---|
| Airport | Una-Comandatuba Airport (SBTC) |
| Time | Latitude | Longitude | Altitude | Speed | Heading |
|---|---|---|---|---|---|
| 2026-04-14 21:19 | -18.72207 | -39.83666 | 97 ft | 0 kts | 97° |
| 2026-04-14 21:22 | -18.72213 | -39.83641 | 96 ft | 9 kts | 128° |
| 2026-04-14 21:22 | -18.72276 | -39.83599 | 95 ft | 10 kts | 167° |
| 2026-04-14 21:22 | -18.72324 | -39.83650 | 95 ft | 11 kts | 237° |
| 2026-04-14 21:22 | -18.72378 | -39.83740 | 96 ft | 19 kts | 237° |
| 2026-04-14 21:23 | -18.72446 | -39.83859 | 97 ft | 17 kts | 255° |
| 2026-04-14 21:23 | -18.72477 | -39.83902 | 97 ft | 5 kts | 99° |
| 2026-04-14 21:23 | -18.72466 | -39.83879 | 97 ft | 0 kts | 57° |
| 2026-04-14 21:24 | -18.72436 | -39.83833 | 97 ft | 29 kts | 56° |
| 2026-04-14 21:24 | -18.72222 | -39.83488 | 95 ft | 82 kts | 56° |
| 2026-04-14 21:24 | -18.71835 | -39.82874 | 229 ft | 111 kts | 55° |
| 2026-04-14 21:24 | -18.71352 | -39.82187 | 576 ft | 118 kts | 56° |
| 2026-04-14 21:25 | -18.70846 | -39.81528 | 991 ft | 116 kts | 54° |
| 2026-04-14 21:25 | -18.70218 | -39.80997 | 1300 ft | 125 kts | 17° |
| 2026-04-14 21:25 | -18.69306 | -39.80762 | 1507 ft | 140 kts | 18° |
| 2026-04-14 21:25 | -18.68381 | -39.80464 | 1929 ft | 139 kts | 19° |
| 2026-04-14 21:26 | -18.67450 | -39.80165 | 2321 ft | 140 kts | 19° |
| 2026-04-14 21:26 | -18.66513 | -39.79862 | 2716 ft | 142 kts | 19° |
| 2026-04-14 21:26 | -18.65566 | -39.79555 | 3111 ft | 142 kts | 19° |
| 2026-04-14 21:26 | -18.64616 | -39.79245 | 3500 ft | 143 kts | 19° |
| 2026-04-14 21:27 | -18.63659 | -39.78932 | 3876 ft | 145 kts | 19° |
| 2026-04-14 21:27 | -18.62697 | -39.78619 | 4262 ft | 145 kts | 18° |
| 2026-04-14 21:27 | -18.61732 | -39.78305 | 4642 ft | 146 kts | 18° |
| 2026-04-14 21:27 | -18.60757 | -39.77988 | 5024 ft | 147 kts | 18° |
| 2026-04-14 21:28 | -18.59780 | -39.77669 | 5392 ft | 148 kts | 18° |
| 2026-04-14 21:28 | -18.58794 | -39.77347 | 5771 ft | 149 kts | 17° |
| 2026-04-14 21:28 | -18.57802 | -39.77025 | 6140 ft | 150 kts | 17° |
| 2026-04-14 21:28 | -18.56804 | -39.76698 | 6506 ft | 151 kts | 17° |
| 2026-04-14 21:29 | -18.55800 | -39.76372 | 6878 ft | 151 kts | 17° |
| 2026-04-14 21:29 | -18.54790 | -39.76043 | 7245 ft | 152 kts | 17° |
| 2026-04-14 21:29 | -18.53774 | -39.75712 | 7608 ft | 153 kts | 17° |
| 2026-04-14 21:29 | -18.52754 | -39.75380 | 7978 ft | 153 kts | 17° |
| 2026-04-14 21:30 | -18.51732 | -39.75046 | 8345 ft | 154 kts | 17° |
| 2026-04-14 21:30 | -18.50705 | -39.74711 | 8699 ft | 155 kts | 17° |
| 2026-04-14 21:30 | -18.49672 | -39.74377 | 9051 ft | 156 kts | 17° |
| 2026-04-14 21:30 | -18.48633 | -39.74037 | 9406 ft | 157 kts | 17° |
| 2026-04-14 21:31 | -18.47588 | -39.73698 | 9763 ft | 157 kts | 16° |
| 2026-04-14 21:31 | -18.46541 | -39.73357 | 10117 ft | 158 kts | 16° |
| 2026-04-14 21:31 | -18.45491 | -39.73016 | 10465 ft | 158 kts | 15° |
| 2026-04-14 21:31 | -18.44438 | -39.72672 | 10817 ft | 159 kts | 15° |
| 2026-04-14 21:32 | -18.43381 | -39.72329 | 11159 ft | 160 kts | 15° |
| 2026-04-14 21:32 | -18.42317 | -39.71983 | 11505 ft | 160 kts | 14° |
| 2026-04-14 21:32 | -18.41250 | -39.71636 | 11849 ft | 161 kts | 14° |
| 2026-04-14 21:32 | -18.40194 | -39.71292 | 12189 ft | 161 kts | 14° |
| 2026-04-14 21:33 | -18.39104 | -39.70938 | 12531 ft | 162 kts | 14° |
| 2026-04-14 21:33 | -18.38038 | -39.70591 | 12863 ft | 163 kts | 14° |
| 2026-04-14 21:33 | -18.36955 | -39.70239 | 13199 ft | 163 kts | 14° |
| 2026-04-14 21:33 | -18.35867 | -39.69886 | 13530 ft | 164 kts | 13° |
| 2026-04-14 21:34 | -18.34760 | -39.69526 | 13867 ft | 165 kts | 13° |
| 2026-04-14 21:34 | -18.33679 | -39.69175 | 14197 ft | 165 kts | 13° |
| 2026-04-14 21:34 | -18.32582 | -39.68818 | 14525 ft | 166 kts | 13° |
| 2026-04-14 21:34 | -18.31478 | -39.68459 | 14847 ft | 166 kts | 13° |
| 2026-04-14 21:35 | -18.30368 | -39.68100 | 15169 ft | 167 kts | 13° |
| 2026-04-14 21:35 | -18.29254 | -39.67737 | 15490 ft | 168 kts | 13° |
| 2026-04-14 21:35 | -18.28121 | -39.67369 | 15817 ft | 168 kts | 13° |
| 2026-04-14 21:35 | -18.27014 | -39.67010 | 16129 ft | 169 kts | 13° |
| 2026-04-14 21:36 | -18.25886 | -39.66644 | 16443 ft | 170 kts | 13° |
| 2026-04-14 21:36 | -18.24756 | -39.66277 | 16758 ft | 170 kts | 13° |
| 2026-04-14 21:36 | -18.23622 | -39.65909 | 17070 ft | 171 kts | 13° |
| 2026-04-14 21:36 | -18.22483 | -39.65539 | 17381 ft | 172 kts | 13° |
| 2026-04-14 21:37 | -18.21340 | -39.65169 | 17688 ft | 172 kts | 13° |
| 2026-04-14 21:37 | -18.20192 | -39.64795 | 17989 ft | 173 kts | 13° |
| 2026-04-14 21:37 | -18.19039 | -39.64422 | 18297 ft | 174 kts | 13° |
| 2026-04-14 21:37 | -18.17883 | -39.64047 | 18592 ft | 175 kts | 13° |
| 2026-04-14 21:38 | -18.16713 | -39.63669 | 18874 ft | 177 kts | 13° |
| 2026-04-14 21:38 | -18.15533 | -39.63286 | 19162 ft | 178 kts | 13° |
| 2026-04-14 21:38 | -18.14345 | -39.62900 | 19444 ft | 180 kts | 13° |
| 2026-04-14 21:38 | -18.13145 | -39.62511 | 19726 ft | 181 kts | 13° |
| 2026-04-14 21:39 | -18.11938 | -39.62120 | 20008 ft | 182 kts | 13° |
| 2026-04-14 21:39 | -18.10721 | -39.61725 | 20286 ft | 184 kts | 13° |
| 2026-04-14 21:39 | -18.09497 | -39.61329 | 20568 ft | 185 kts | 13° |
| 2026-04-14 21:39 | -18.08262 | -39.60929 | 20840 ft | 186 kts | 13° |
| 2026-04-14 21:40 | -18.07018 | -39.60525 | 21115 ft | 188 kts | 14° |
| 2026-04-14 21:40 | -18.05765 | -39.60119 | 21384 ft | 189 kts | 13° |
| 2026-04-14 21:40 | -18.04500 | -39.59710 | 21655 ft | 191 kts | 14° |
| 2026-04-14 21:40 | -18.03226 | -39.59297 | 21927 ft | 192 kts | 14° |
| 2026-04-14 21:41 | -18.01941 | -39.58882 | 22199 ft | 193 kts | 14° |
| 2026-04-14 21:41 | -18.00650 | -39.58464 | 22461 ft | 195 kts | 14° |
| 2026-04-14 21:41 | -17.99351 | -39.58043 | 22724 ft | 196 kts | 14° |
| 2026-04-14 21:41 | -17.98041 | -39.57619 | 22990 ft | 198 kts | 14° |
| 2026-04-14 21:42 | -17.96722 | -39.57193 | 23251 ft | 199 kts | 14° |
| 2026-04-14 21:42 | -17.95392 | -39.56763 | 23504 ft | 201 kts | 14° |
| 2026-04-14 21:42 | -17.94054 | -39.56329 | 23766 ft | 202 kts | 14° |
| 2026-04-14 21:42 | -17.92707 | -39.55894 | 24019 ft | 203 kts | 14° |
| 2026-04-14 21:43 | -17.91349 | -39.55454 | 24273 ft | 205 kts | 14° |
| 2026-04-14 21:43 | -17.90004 | -39.55020 | 24537 ft | 205 kts | 14° |
| 2026-04-14 21:43 | -17.88636 | -39.54578 | 24795 ft | 206 kts | 14° |
| 2026-04-14 21:43 | -17.87257 | -39.54132 | 24996 ft | 211 kts | 14° |
| 2026-04-14 21:44 | -17.85803 | -39.53665 | 25009 ft | 225 kts | 14° |
| 2026-04-14 21:44 | -17.84258 | -39.53167 | 25009 ft | 239 kts | 14° |
| 2026-04-14 21:44 | -17.82627 | -39.52640 | 25005 ft | 251 kts | 14° |
| 2026-04-14 21:44 | -17.80923 | -39.52089 | 25011 ft | 262 kts | 14° |
| 2026-04-14 21:45 | -17.79149 | -39.51515 | 25009 ft | 271 kts | 14° |
| 2026-04-14 21:45 | -17.77317 | -39.50924 | 25009 ft | 279 kts | 14° |
| 2026-04-14 21:45 | -17.75438 | -39.50317 | 25011 ft | 286 kts | 15° |
| 2026-04-14 21:45 | -17.73520 | -39.49698 | 25011 ft | 291 kts | 15° |
| 2026-04-14 21:46 | -17.71569 | -39.49069 | 25007 ft | 295 kts | 15° |
| 2026-04-14 21:46 | -17.69590 | -39.48431 | 25008 ft | 299 kts | 15° |
| 2026-04-14 21:46 | -17.67589 | -39.47786 | 25011 ft | 302 kts | 15° |
| 2026-04-14 21:46 | -17.65569 | -39.47134 | 25011 ft | 305 kts | 15° |
| 2026-04-14 21:47 | -17.63535 | -39.46478 | 25004 ft | 307 kts | 15° |
| 2026-04-14 21:47 | -17.61488 | -39.45819 | 25003 ft | 308 kts | 15° |
| 2026-04-14 21:47 | -17.59436 | -39.45157 | 25000 ft | 310 kts | 15° |
| 2026-04-14 21:47 | -17.57369 | -39.44492 | 25011 ft | 310 kts | 15° |
| 2026-04-14 21:48 | -17.55305 | -39.43828 | 25004 ft | 311 kts | 15° |
| 2026-04-14 21:48 | -17.53233 | -39.43160 | 25011 ft | 312 kts | 15° |
| 2026-04-14 21:48 | -17.51156 | -39.42492 | 25007 ft | 312 kts | 15° |
| 2026-04-14 21:48 | -17.49076 | -39.41823 | 25010 ft | 313 kts | 15° |
| 2026-04-14 21:49 | -17.46995 | -39.41154 | 25004 ft | 313 kts | 15° |
| 2026-04-14 21:49 | -17.44913 | -39.40484 | 25007 ft | 313 kts | 15° |
| 2026-04-14 21:49 | -17.42829 | -39.39814 | 25004 ft | 313 kts | 15° |
| 2026-04-14 21:49 | -17.40749 | -39.39146 | 25004 ft | 313 kts | 15° |
| 2026-04-14 21:50 | -17.38660 | -39.38474 | 25008 ft | 313 kts | 15° |
| 2026-04-14 21:50 | -17.36579 | -39.37805 | 25003 ft | 314 kts | 15° |
| 2026-04-14 21:50 | -17.34491 | -39.37134 | 25008 ft | 314 kts | 15° |
| 2026-04-14 21:50 | -17.32400 | -39.36464 | 25009 ft | 314 kts | 15° |
| 2026-04-14 21:51 | -17.31019 | -39.36021 | 25008 ft | 314 kts | 15° |
| 2026-04-14 21:51 | -17.28930 | -39.35349 | 25009 ft | 314 kts | 15° |
| 2026-04-14 21:51 | -17.26839 | -39.34678 | 25003 ft | 314 kts | 15° |
| 2026-04-14 21:51 | -17.24749 | -39.34008 | 25002 ft | 314 kts | 15° |
| 2026-04-14 21:52 | -17.22658 | -39.33337 | 24993 ft | 314 kts | 15° |
| 2026-04-14 21:52 | -17.20568 | -39.32667 | 24994 ft | 314 kts | 15° |
| 2026-04-14 21:52 | -17.18479 | -39.31997 | 24995 ft | 314 kts | 15° |
| 2026-04-14 21:52 | -17.16392 | -39.31329 | 24994 ft | 314 kts | 15° |
| 2026-04-14 21:53 | -17.14304 | -39.30660 | 24994 ft | 314 kts | 15° |
| 2026-04-14 21:53 | -17.12220 | -39.29992 | 24997 ft | 314 kts | 15° |
| 2026-04-14 21:53 | -17.10126 | -39.29320 | 24997 ft | 314 kts | 15° |
| 2026-04-14 21:53 | -17.08041 | -39.28653 | 24993 ft | 314 kts | 15° |
| 2026-04-14 21:54 | -17.05952 | -39.27984 | 24997 ft | 314 kts | 15° |
| 2026-04-14 21:54 | -17.03862 | -39.27316 | 24991 ft | 314 kts | 15° |
| 2026-04-14 21:54 | -17.01773 | -39.26647 | 24993 ft | 314 kts | 15° |
| 2026-04-14 21:54 | -16.99685 | -39.25979 | 24989 ft | 314 kts | 15° |
| 2026-04-14 21:55 | -16.97597 | -39.25311 | 24989 ft | 314 kts | 15° |
| 2026-04-14 21:55 | -16.95510 | -39.24644 | 24993 ft | 314 kts | 15° |
| 2026-04-14 21:55 | -16.93421 | -39.23975 | 24992 ft | 314 kts | 15° |
| 2026-04-14 21:55 | -16.91331 | -39.23308 | 24995 ft | 314 kts | 15° |
| 2026-04-14 21:56 | -16.89241 | -39.22640 | 24993 ft | 314 kts | 15° |
| 2026-04-14 21:56 | -16.87151 | -39.21972 | 24998 ft | 314 kts | 15° |
| 2026-04-14 21:56 | -16.85060 | -39.21304 | 24998 ft | 314 kts | 15° |
| 2026-04-14 21:56 | -16.82973 | -39.20639 | 24998 ft | 314 kts | 15° |
| 2026-04-14 21:57 | -16.80882 | -39.19970 | 24998 ft | 314 kts | 15° |
| 2026-04-14 21:57 | -16.78791 | -39.19303 | 24993 ft | 314 kts | 15° |
| 2026-04-14 21:57 | -16.76723 | -39.18643 | 24998 ft | 314 kts | 15° |
| 2026-04-14 21:57 | -16.74631 | -39.17976 | 24994 ft | 314 kts | 15° |
| 2026-04-14 21:58 | -16.72540 | -39.17308 | 24998 ft | 314 kts | 15° |
| 2026-04-14 21:58 | -16.70449 | -39.16642 | 24999 ft | 314 kts | 15° |
| 2026-04-14 21:58 | -16.68359 | -39.15976 | 24998 ft | 314 kts | 15° |
| 2026-04-14 21:58 | -16.66269 | -39.15308 | 24998 ft | 314 kts | 15° |
| 2026-04-14 21:59 | -16.64178 | -39.14643 | 24998 ft | 314 kts | 15° |
| 2026-04-14 21:59 | -16.62090 | -39.13977 | 24998 ft | 314 kts | 15° |
| 2026-04-14 21:59 | -16.60003 | -39.13313 | 24998 ft | 314 kts | 15° |
| 2026-04-14 21:59 | -16.57916 | -39.12649 | 24991 ft | 314 kts | 15° |
| 2026-04-14 22:00 | -16.55830 | -39.11984 | 24998 ft | 314 kts | 15° |
| 2026-04-14 22:00 | -16.53743 | -39.11320 | 24998 ft | 314 kts | 15° |
| 2026-04-14 22:00 | -16.51655 | -39.10655 | 24998 ft | 314 kts | 15° |
| 2026-04-14 22:00 | -16.49567 | -39.09990 | 24998 ft | 314 kts | 15° |
| 2026-04-14 22:01 | -16.47478 | -39.09326 | 24998 ft | 314 kts | 15° |
| 2026-04-14 22:01 | -16.45392 | -39.08667 | 24993 ft | 314 kts | 14° |
| 2026-04-14 22:01 | -16.43252 | -39.08323 | 24997 ft | 311 kts | 359° |
| 2026-04-14 22:01 | -16.41100 | -39.08378 | 24994 ft | 310 kts | 356° |
| 2026-04-14 22:02 | -16.38945 | -39.08445 | 25000 ft | 310 kts | 356° |
| 2026-04-14 22:02 | -16.36790 | -39.08506 | 25000 ft | 310 kts | 356° |
| 2026-04-14 22:02 | -16.34630 | -39.08571 | 25001 ft | 310 kts | 356° |
| 2026-04-14 22:02 | -16.32475 | -39.08637 | 25001 ft | 310 kts | 356° |
| 2026-04-14 22:03 | -16.30320 | -39.08702 | 24992 ft | 310 kts | 356° |
| 2026-04-14 22:03 | -16.28193 | -39.08766 | 25001 ft | 310 kts | 356° |
| 2026-04-14 22:03 | -16.26013 | -39.08831 | 24995 ft | 310 kts | 356° |
| 2026-04-14 22:03 | -16.23853 | -39.08897 | 24995 ft | 310 kts | 356° |
| 2026-04-14 22:04 | -16.21696 | -39.08963 | 24994 ft | 310 kts | 356° |
| 2026-04-14 22:04 | -16.19539 | -39.09027 | 25000 ft | 310 kts | 356° |
| 2026-04-14 22:04 | -16.17381 | -39.09092 | 25002 ft | 310 kts | 356° |
| 2026-04-14 22:04 | -16.15226 | -39.09158 | 24632 ft | 322 kts | 356° |
| 2026-04-14 22:05 | -16.12939 | -39.09229 | 24065 ft | 335 kts | 356° |
| 2026-04-14 22:05 | -16.10572 | -39.09298 | 23500 ft | 345 kts | 357° |
| 2026-04-14 22:05 | -16.08149 | -39.09370 | 22934 ft | 351 kts | 357° |
| 2026-04-14 22:05 | -16.05711 | -39.09443 | 22366 ft | 350 kts | 357° |
| 2026-04-14 22:06 | -16.03284 | -39.09516 | 21798 ft | 348 kts | 357° |
| 2026-04-14 22:06 | -16.00871 | -39.09590 | 21226 ft | 346 kts | 357° |
| 2026-04-14 22:06 | -15.98473 | -39.09661 | 20654 ft | 343 kts | 357° |
| 2026-04-14 22:06 | -15.96094 | -39.09733 | 20080 ft | 341 kts | 357° |
| 2026-04-14 22:07 | -15.93740 | -39.09804 | 19508 ft | 337 kts | 357° |
| 2026-04-14 22:07 | -15.91405 | -39.09873 | 18933 ft | 333 kts | 357° |
| 2026-04-14 22:07 | -15.89108 | -39.09943 | 18359 ft | 329 kts | 357° |
| 2026-04-14 22:07 | -15.86832 | -39.10011 | 17785 ft | 325 kts | 357° |
| 2026-04-14 22:08 | -15.84577 | -39.10079 | 17210 ft | 322 kts | 357° |
| 2026-04-14 22:08 | -15.82354 | -39.10146 | 16636 ft | 319 kts | 357° |
| 2026-04-14 22:08 | -15.80147 | -39.10212 | 16062 ft | 316 kts | 357° |
| 2026-04-14 22:08 | -15.77959 | -39.10276 | 15487 ft | 313 kts | 357° |
| 2026-04-14 22:09 | -15.75789 | -39.10343 | 14955 ft | 310 kts | 357° |
| 2026-04-14 22:09 | -15.73658 | -39.10405 | 14544 ft | 303 kts | 357° |
| 2026-04-14 22:09 | -15.71564 | -39.10468 | 14138 ft | 299 kts | 356° |
| 2026-04-14 22:09 | -15.69502 | -39.10530 | 13747 ft | 294 kts | 356° |
| 2026-04-14 22:10 | -15.67478 | -39.10590 | 13356 ft | 288 kts | 356° |
| 2026-04-14 22:10 | -15.65487 | -39.10649 | 12979 ft | 285 kts | 356° |
| 2026-04-14 22:10 | -15.63520 | -39.10710 | 12603 ft | 281 kts | 356° |
| 2026-04-14 22:10 | -15.61572 | -39.10768 | 12231 ft | 279 kts | 356° |
| 2026-04-14 22:11 | -15.59642 | -39.10826 | 11862 ft | 276 kts | 356° |
| 2026-04-14 22:11 | -15.57726 | -39.10883 | 11495 ft | 275 kts | 356° |
| 2026-04-14 22:11 | -15.55844 | -39.10940 | 11136 ft | 274 kts | 357° |
| 2026-04-14 22:11 | -15.53924 | -39.10997 | 10769 ft | 273 kts | 357° |
| 2026-04-14 22:12 | -15.52029 | -39.11054 | 10407 ft | 272 kts | 357° |
| 2026-04-14 22:12 | -15.50139 | -39.11111 | 10046 ft | 272 kts | 358° |
| 2026-04-14 22:12 | -15.48252 | -39.11167 | 9686 ft | 271 kts | 358° |
| 2026-04-14 22:12 | -15.46367 | -39.11223 | 9327 ft | 271 kts | 358° |
| 2026-04-14 22:13 | -15.44485 | -39.11279 | 8966 ft | 270 kts | 358° |
| 2026-04-14 22:13 | -15.42632 | -39.11335 | 8603 ft | 270 kts | 359° |
| 2026-04-14 22:13 | -15.40760 | -39.11391 | 8244 ft | 269 kts | 359° |
| 2026-04-14 22:13 | -15.38895 | -39.11446 | 7887 ft | 267 kts | 359° |
| 2026-04-14 22:14 | -15.37042 | -39.11502 | 7527 ft | 267 kts | 359° |
| 2026-04-14 22:14 | -15.35185 | -39.11559 | 7177 ft | 266 kts | 359° |
| 2026-04-14 22:14 | -15.33343 | -39.11612 | 6824 ft | 264 kts | 359° |
| 2026-04-14 22:14 | -15.31502 | -39.11668 | 6472 ft | 264 kts | 359° |
| 2026-04-14 22:15 | -15.29671 | -39.11723 | 6121 ft | 263 kts | 359° |
| 2026-04-14 22:15 | -15.27849 | -39.11777 | 5773 ft | 261 kts | 359° |
| 2026-04-14 22:15 | -15.26038 | -39.11831 | 5446 ft | 259 kts | 359° |
| 2026-04-14 22:15 | -15.24243 | -39.11885 | 5110 ft | 255 kts | 359° |
| 2026-04-14 22:16 | -15.22522 | -39.11793 | 4777 ft | 242 kts | 14° |
| 2026-04-14 22:16 | -15.21008 | -39.11168 | 4463 ft | 225 kts | 33° |
| 2026-04-14 22:16 | -15.19864 | -39.10218 | 4176 ft | 203 kts | 50° |
| 2026-04-14 22:16 | -15.19060 | -39.09056 | 3907 ft | 194 kts | 65° |
| 2026-04-14 22:17 | -15.18594 | -39.07777 | 3653 ft | 188 kts | 80° |
| 2026-04-14 22:17 | -15.18425 | -39.06468 | 3409 ft | 180 kts | 88° |
| 2026-04-14 22:17 | -15.18299 | -39.05192 | 3174 ft | 175 kts | 90° |
| 2026-04-14 22:17 | -15.18430 | -39.03960 | 2941 ft | 171 kts | 110° |
| 2026-04-14 22:18 | -15.18946 | -39.02868 | 2720 ft | 169 kts | 128° |
| 2026-04-14 22:18 | -15.19771 | -39.02023 | 2550 ft | 165 kts | 145° |
| 2026-04-14 22:18 | -15.20795 | -39.01509 | 2400 ft | 164 kts | 162° |
| 2026-04-14 22:18 | -15.21909 | -39.01335 | 2245 ft | 164 kts | 173° |
| 2026-04-14 22:19 | -15.23041 | -39.01213 | 2092 ft | 163 kts | 172° |
| 2026-04-14 22:19 | -15.25299 | -39.00964 | 1783 ft | 160 kts | 173° |
| 2026-04-14 22:19 | -15.26391 | -39.00847 | 1629 ft | 153 kts | 173° |
| 2026-04-14 22:20 | -15.27410 | -39.00737 | 1424 ft | 143 kts | 173° |
| 2026-04-14 22:20 | -15.28381 | -39.00633 | 1237 ft | 138 kts | 173° |
| 2026-04-14 22:20 | -15.29284 | -39.00536 | 1072 ft | 124 kts | 172° |
| 2026-04-14 22:20 | -15.30113 | -39.00445 | 1002 ft | 114 kts | 172° |
| 2026-04-14 22:21 | -15.30802 | -39.00372 | 1006 ft | 87 kts | 172° |
| 2026-04-14 22:21 | -15.31408 | -39.00304 | 978 ft | 90 kts | 172° |
| 2026-04-14 22:21 | -15.32040 | -39.00236 | 880 ft | 92 kts | 172° |
| 2026-04-14 22:21 | -15.32675 | -39.00163 | 697 ft | 92 kts | 171° |
| 2026-04-14 22:22 | -15.33297 | -39.00100 | 464 ft | 89 kts | 173° |
| 2026-04-14 22:22 | -15.33915 | -39.00019 | 217 ft | 90 kts | 174° |
| 2026-04-14 22:22 | -15.34524 | -38.99963 | 48 ft | 85 kts | 174° |
| 2026-04-14 22:22 | -15.35049 | -38.99904 | 13 ft | 66 kts | 173° |
| 2026-04-14 22:23 | -15.35381 | -38.99871 | 13 ft | 33 kts | 174° |
| 2026-04-14 22:23 | -15.35601 | -38.99847 | 14 ft | 29 kts | 171° |
| 2026-04-14 22:23 | -15.35724 | -38.99825 | 13 ft | 9 kts | 138° |
| 2026-04-14 22:23 | -15.35737 | -38.99782 | 13 ft | 6 kts | 78° |
| 2026-04-14 22:24 | -15.35729 | -38.99739 | 13 ft | 6 kts | 85° |
| 2026-04-14 22:24 | -15.35725 | -38.99692 | 13 ft | 7 kts | 82° |
| 2026-04-14 22:24 | -15.35709 | -38.99650 | 13 ft | 4 kts | 28° |
| 2026-04-14 22:24 | -15.35684 | -38.99630 | 13 ft | 4 kts | 60° |
| 2026-04-14 22:25 | -15.35693 | -38.99611 | 13 ft | 4 kts | 201° |
| 2026-04-14 22:25 | -15.35700 | -38.99608 | 13 ft | 0 kts | 108° |